createdAt,value
2019-03-19T00:01:08.648Z,3.60
2019-03-19T00:03:39.143Z,3.60
2019-03-19T00:06:09.683Z,3.50
2019-03-19T00:08:40.176Z,3.50
2019-03-19T00:11:10.729Z,3.40
2019-03-19T00:13:41.263Z,3.30
2019-03-19T00:16:11.753Z,3.30
2019-03-19T00:18:43.270Z,3.20
2019-03-19T00:21:14.078Z,3.30
2019-03-19T00:23:44.627Z,3.30
2019-03-19T00:26:15.157Z,3.30
2019-03-19T00:28:45.742Z,3.30
2019-03-19T00:31:16.455Z,3.30
2019-03-19T00:33:46.940Z,3.30
2019-03-19T00:36:17.707Z,3.30
2019-03-19T00:38:49.162Z,3.30
2019-03-19T00:41:20.877Z,3.30
2019-03-19T00:43:51.311Z,3.30
2019-03-19T00:46:21.874Z,3.40
2019-03-19T00:48:52.352Z,3.40
2019-03-19T00:51:23.263Z,3.30
2019-03-19T00:53:53.779Z,3.30
2019-03-19T00:56:24.338Z,3.30
2019-03-19T00:58:57.075Z,3.30
2019-03-19T01:01:27.712Z,3.20
2019-03-19T01:03:58.239Z,3.20
2019-03-19T01:06:28.940Z,3.20
2019-03-19T01:08:59.450Z,3.20
2019-03-19T01:11:30.078Z,3.20
2019-03-19T01:14:00.604Z,3.10
2019-03-19T01:16:32.805Z,3.10
2019-03-19T01:19:03.425Z,3.20
2019-03-19T01:21:34.014Z,3.10
2019-03-19T01:24:04.588Z,3.10
2019-03-19T01:26:35.308Z,3.10
2019-03-19T01:29:06.080Z,3.00
2019-03-19T01:31:39.074Z,3.00
2019-03-19T01:34:09.585Z,3.00
2019-03-19T01:36:40.175Z,3.00
2019-03-19T01:39:10.656Z,2.90
2019-03-19T01:41:41.231Z,2.90
2019-03-19T01:44:11.703Z,2.90
2019-03-19T01:46:42.278Z,2.90
2019-03-19T01:49:12.733Z,2.90
2019-03-19T01:51:43.277Z,2.90
2019-03-19T01:54:13.835Z,3.00
2019-03-19T01:56:44.328Z,3.00
2019-03-19T01:59:14.857Z,3.00
2019-03-19T02:01:47.674Z,3.00
2019-03-19T02:04:18.204Z,3.00
2019-03-19T02:06:48.773Z,3.00
2019-03-19T02:09:19.293Z,3.00
2019-03-19T02:11:49.841Z,3.00
2019-03-19T02:14:20.417Z,2.90
2019-03-19T02:16:51.062Z,2.80
2019-03-19T02:19:21.534Z,2.80
2019-03-19T02:21:53.121Z,2.70
2019-03-19T02:24:23.567Z,2.60
2019-03-19T02:26:54.100Z,2.60
2019-03-19T02:29:24.670Z,2.60
2019-03-19T02:31:55.164Z,2.60
2019-03-19T02:34:25.601Z,2.60
2019-03-19T02:36:56.261Z,2.60
2019-03-19T02:39:26.672Z,2.60
2019-03-19T02:41:57.186Z,2.60
2019-03-19T02:44:27.622Z,2.50
2019-03-19T02:46:58.222Z,2.50
2019-03-19T02:49:28.670Z,2.50
2019-03-19T02:51:59.157Z,2.60
2019-03-19T02:54:29.798Z,2.60
2019-03-19T02:57:01.400Z,2.60
2019-03-19T02:59:31.975Z,2.60
2019-03-19T03:02:02.516Z,2.60
2019-03-19T03:04:33.141Z,2.60
2019-03-19T03:07:03.778Z,2.60
2019-03-19T03:09:34.356Z,2.60
2019-03-19T03:12:04.821Z,2.60
2019-03-19T03:14:36.315Z,2.60
2019-03-19T03:17:06.831Z,2.60
2019-03-19T03:19:37.385Z,2.60
2019-03-19T03:22:07.914Z,2.60
2019-03-19T03:24:38.629Z,2.60
2019-03-19T03:27:09.170Z,2.60
2019-03-19T03:29:39.733Z,2.60
2019-03-19T03:32:10.225Z,2.60
2019-03-19T03:34:40.748Z,2.70
2019-03-19T03:37:11.276Z,2.60
2019-03-19T03:39:41.820Z,2.60
2019-03-19T03:42:12.358Z,2.60
2019-03-19T03:44:42.963Z,2.60
2019-03-19T03:47:13.721Z,2.60
2019-03-19T03:49:44.241Z,2.60
2019-03-19T03:52:14.682Z,2.50
2019-03-19T03:54:45.178Z,2.50
2019-03-19T03:57:15.633Z,2.50
2019-03-19T03:59:46.174Z,2.50
2019-03-19T04:02:16.633Z,2.50
2019-03-19T04:04:47.155Z,2.50
2019-03-19T04:07:17.658Z,2.50
2019-03-19T04:09:50.706Z,2.50
2019-03-19T04:12:21.376Z,2.50
2019-03-19T04:14:51.897Z,2.50
2019-03-19T04:17:22.420Z,2.50
2019-03-19T04:19:52.918Z,2.40
2019-03-19T04:22:23.522Z,2.40
2019-03-19T04:24:54.191Z,2.40
2019-03-19T04:27:24.643Z,2.30
2019-03-19T04:29:56.154Z,2.30
2019-03-19T04:32:26.537Z,2.30
2019-03-19T04:34:57.070Z,2.30
2019-03-19T04:37:27.627Z,2.20
2019-03-19T04:39:58.125Z,2.20
2019-03-19T04:42:29.661Z,2.20
2019-03-19T04:45:00.351Z,2.20
2019-03-19T04:47:30.793Z,2.10
2019-03-19T04:50:01.333Z,2.20
2019-03-19T04:52:31.811Z,2.10
2019-03-19T04:55:03.646Z,2.10
2019-03-19T04:57:34.259Z,2.10
2019-03-19T05:00:05.411Z,2.10
2019-03-19T05:02:35.959Z,2.20
2019-03-19T05:05:07.010Z,2.30
2019-03-19T05:07:37.457Z,2.40
2019-03-19T05:10:09.821Z,2.60
2019-03-19T05:12:40.435Z,2.80
2019-03-19T05:15:10.907Z,3.20
2019-03-19T05:17:41.438Z,3.30
2019-03-19T05:20:11.983Z,3.70
2019-03-19T05:22:44.569Z,3.90
2019-03-19T05:25:15.287Z,4.30
2019-03-19T05:27:45.835Z,4.60
2019-03-19T05:30:18.892Z,4.80
2019-03-19T05:32:49.444Z,5.30
2019-03-19T05:35:21.913Z,5.10
2019-03-19T05:37:52.670Z,5.70
2019-03-19T05:40:23.236Z,5.60
2019-03-19T05:42:53.867Z,6.10
2019-03-19T05:45:24.406Z,6.20
2019-03-19T05:47:54.891Z,6.30
2019-03-19T05:50:25.745Z,6.60
2019-03-19T05:52:56.530Z,6.50
2019-03-19T05:55:27.020Z,6.70
2019-03-19T05:57:57.577Z,6.80
2019-03-19T06:00:29.891Z,6.90
2019-03-19T06:03:00.562Z,6.90
2019-03-19T06:05:31.262Z,7.30
2019-03-19T06:08:01.778Z,7.50
2019-03-19T06:10:32.299Z,7.70
2019-03-19T06:13:02.814Z,7.90
2019-03-19T06:15:34.272Z,8.10
2019-03-19T06:18:04.964Z,8.40
2019-03-19T06:20:35.417Z,8.30
2019-03-19T06:23:05.907Z,8.50
2019-03-19T06:25:36.379Z,8.30
2019-03-19T06:28:06.831Z,8.20
2019-03-19T06:30:37.389Z,8.10
2019-03-19T06:33:08.377Z,8.20
2019-03-19T06:35:38.849Z,8.20
2019-03-19T06:38:09.422Z,8.10
2019-03-19T06:40:39.850Z,8.30
2019-03-19T06:43:11.634Z,8.30
2019-03-19T06:45:42.120Z,8.40
2019-03-19T06:48:12.730Z,8.40
2019-03-19T06:50:45.367Z,8.50
2019-03-19T06:53:16.305Z,8.50
2019-03-19T06:55:46.813Z,8.70
2019-03-19T06:58:17.511Z,9.00
2019-03-19T07:00:48.039Z,9.20
2019-03-19T07:03:18.788Z,9.30
2019-03-19T07:05:49.232Z,9.50
2019-03-19T07:08:19.826Z,9.80
2019-03-19T07:10:50.304Z,9.90
2019-03-19T07:13:20.762Z,10.10
2019-03-19T07:15:51.294Z,10.10
2019-03-19T07:18:21.736Z,10.30
2019-03-19T07:20:52.276Z,10.40
2019-03-19T07:23:22.727Z,10.60
2019-03-19T07:25:53.292Z,10.60
2019-03-19T07:28:23.637Z,10.60
2019-03-19T07:30:54.150Z,10.80
2019-03-19T07:33:24.550Z,10.90
2019-03-19T07:35:55.011Z,11.00
2019-03-19T07:38:25.508Z,11.00
2019-03-19T07:40:56.070Z,11.00
2019-03-19T07:43:27.641Z,11.10
2019-03-19T07:45:58.125Z,11.00
2019-03-19T07:48:28.804Z,10.90
2019-03-19T07:50:59.307Z,10.90
2019-03-19T07:53:29.822Z,10.60
2019-03-19T07:56:00.409Z,10.40
2019-03-19T07:58:40.672Z,10.60
2019-03-19T08:01:03.166Z,10.90
2019-03-19T08:03:33.661Z,11.20
2019-03-19T08:06:04.099Z,11.00
2019-03-19T08:08:34.609Z,11.00
2019-03-19T08:11:05.143Z,11.10
2019-03-19T08:13:35.597Z,11.40
2019-03-19T08:16:06.144Z,11.30
2019-03-19T08:18:36.582Z,11.40
2019-03-19T08:21:07.997Z,11.60
2019-03-19T08:23:38.445Z,11.40
2019-03-19T08:26:08.945Z,11.60
2019-03-19T08:28:39.481Z,11.80
2019-03-19T08:31:09.951Z,11.60
2019-03-19T08:33:40.444Z,11.40
2019-03-19T08:36:11.125Z,11.40
2019-03-19T08:38:41.728Z,11.60
2019-03-19T08:41:12.280Z,11.90
2019-03-19T08:43:42.796Z,11.90
2019-03-19T08:46:13.360Z,12.10
2019-03-19T08:48:44.907Z,11.80
2019-03-19T08:51:15.422Z,11.80
2019-03-19T08:53:45.954Z,11.50
2019-03-19T08:56:16.540Z,11.30
2019-03-19T08:58:46.959Z,11.10
2019-03-19T09:01:18.378Z,11.00
2019-03-19T09:03:48.852Z,10.80
2019-03-19T09:06:19.407Z,10.80
2019-03-19T09:08:50.453Z,10.60
2019-03-19T09:11:21.067Z,10.40
2019-03-19T09:13:51.599Z,10.10
2019-03-19T09:16:22.117Z,10.00
2019-03-19T09:18:52.529Z,9.80
2019-03-19T09:21:23.009Z,10.00
2019-03-19T09:23:53.445Z,10.30
2019-03-19T09:26:23.920Z,10.30
2019-03-19T09:28:54.343Z,10.00
2019-03-19T09:31:24.880Z,9.90
2019-03-19T09:33:55.288Z,9.90
2019-03-19T09:36:25.796Z,9.80
2019-03-19T09:38:56.229Z,10.10
2019-03-19T09:41:26.716Z,10.40
2019-03-19T09:43:58.195Z,10.30
2019-03-19T09:46:28.659Z,10.40
2019-03-19T09:48:59.058Z,10.80
2019-03-19T09:51:29.496Z,11.00
2019-03-19T09:53:59.936Z,11.10
2019-03-19T09:56:30.384Z,11.30
2019-03-19T09:59:00.828Z,11.60
2019-03-19T10:01:31.306Z,11.90
2019-03-19T10:04:01.785Z,11.90
2019-03-19T10:06:32.399Z,11.90
2019-03-19T10:09:02.952Z,11.60
2019-03-19T10:11:33.715Z,11.40
2019-03-19T10:14:04.302Z,11.10
2019-03-19T10:16:34.820Z,11.30
2019-03-19T10:19:05.348Z,11.20
2019-03-19T10:21:35.901Z,10.90
2019-03-19T10:24:06.436Z,10.90
2019-03-19T10:26:36.969Z,10.80
2019-03-19T10:29:07.539Z,10.70
2019-03-19T10:31:37.974Z,10.40
2019-03-19T10:34:08.518Z,10.30
2019-03-19T10:36:39.041Z,10.00
2019-03-19T10:39:09.756Z,10.00
2019-03-19T10:41:40.173Z,9.90
2019-03-19T10:44:10.650Z,9.80
2019-03-19T10:46:41.075Z,9.70
2019-03-19T10:49:11.576Z,9.50
2019-03-19T10:51:41.994Z,9.50
2019-03-19T10:54:12.450Z,9.40
2019-03-19T10:56:43.839Z,9.50
2019-03-19T10:59:14.399Z,9.50
2019-03-19T11:01:45.003Z,9.60
2019-03-19T11:04:15.554Z,9.70
2019-03-19T11:06:46.024Z,9.90
2019-03-19T11:09:16.516Z,9.90
2019-03-19T11:11:47.773Z,10.00
2019-03-19T11:14:18.334Z,10.00
2019-03-19T11:16:48.718Z,10.00
2019-03-19T11:19:19.210Z,9.90
2019-03-19T11:21:49.672Z,10.00
2019-03-19T11:24:20.144Z,9.80
2019-03-19T11:26:50.636Z,9.90
2019-03-19T11:29:21.256Z,10.00
2019-03-19T11:31:51.641Z,10.10
2019-03-19T11:34:22.150Z,10.10
2019-03-19T11:36:57.839Z,10.20
2019-03-19T11:39:24.906Z,10.20
2019-03-19T11:41:55.434Z,10.20
2019-03-19T11:44:25.962Z,10.10
2019-03-19T11:46:56.476Z,10.10
2019-03-19T11:49:26.922Z,10.00
2019-03-19T11:51:57.516Z,9.90
2019-03-19T11:54:27.975Z,9.90
2019-03-19T11:56:58.476Z,9.90
2019-03-19T11:59:29.010Z,9.80
2019-03-19T12:01:59.462Z,9.70
2019-03-19T12:04:30.035Z,9.80
2019-03-19T12:07:00.466Z,9.70
2019-03-19T12:09:30.941Z,9.70
2019-03-19T12:12:01.454Z,9.70
2019-03-19T12:14:31.941Z,9.60
2019-03-19T12:17:02.414Z,9.60
2019-03-19T12:19:32.900Z,9.60
2019-03-19T12:22:03.483Z,9.50
2019-03-19T12:24:33.915Z,9.60
2019-03-19T12:27:04.369Z,9.70
2019-03-19T12:29:34.801Z,9.70
2019-03-19T12:32:05.524Z,9.80
2019-03-19T12:34:36.121Z,9.60
2019-03-19T12:37:06.601Z,9.60
2019-03-19T12:39:37.096Z,9.70
2019-03-19T12:42:07.589Z,9.70
2019-03-19T12:44:38.351Z,9.70
2019-03-19T12:47:08.878Z,9.60
2019-03-19T12:49:39.381Z,9.70
2019-03-19T12:52:11.054Z,9.80
2019-03-19T12:54:41.578Z,9.90
2019-03-19T12:57:12.160Z,10.00
2019-03-19T12:59:42.783Z,10.00
2019-03-19T13:02:13.368Z,10.20
2019-03-19T13:04:43.886Z,10.30
2019-03-19T13:07:14.514Z,10.20
2019-03-19T13:09:53.406Z,10.20
2019-03-19T13:12:23.919Z,10.20
2019-03-19T13:14:54.358Z,10.10
2019-03-19T13:17:24.986Z,10.00
2019-03-19T13:19:55.496Z,9.90
2019-03-19T13:22:26.074Z,9.90
2019-03-19T13:24:56.538Z,9.70
2019-03-19T13:27:27.268Z,9.50
2019-03-19T13:29:57.756Z,9.40
2019-03-19T13:32:28.465Z,9.40
2019-03-19T13:34:58.883Z,9.40
2019-03-19T13:37:29.358Z,9.30
2019-03-19T13:40:00.796Z,9.20
2019-03-19T13:42:31.267Z,9.20
2019-03-19T13:45:01.771Z,9.10
2019-03-19T13:47:32.350Z,9.10
2019-03-19T13:50:02.785Z,9.10
2019-03-19T13:52:33.357Z,9.00
2019-03-19T13:55:04.292Z,9.10
2019-03-19T13:57:34.849Z,9.00
2019-03-19T14:00:06.187Z,9.00
2019-03-19T14:02:36.854Z,9.00
2019-03-19T14:05:08.105Z,9.10
2019-03-19T14:07:39.718Z,9.10
2019-03-19T14:10:10.716Z,9.20
2019-03-19T14:12:41.162Z,9.30
2019-03-19T14:15:13.426Z,9.30
2019-03-19T14:17:44.019Z,9.30
2019-03-19T14:20:15.814Z,9.30
2019-03-19T14:22:46.423Z,9.30
2019-03-19T14:25:16.967Z,9.30
2019-03-19T14:27:47.505Z,9.30
2019-03-19T14:30:20.528Z,9.30
2019-03-19T14:32:51.185Z,9.30
2019-03-19T14:35:21.770Z,9.40
2019-03-19T14:37:52.348Z,9.30
2019-03-19T14:40:22.824Z,9.40
2019-03-19T14:42:53.282Z,9.30
2019-03-19T14:45:23.760Z,9.30
2019-03-19T14:47:54.249Z,9.40
2019-03-19T14:50:24.914Z,9.30
2019-03-19T14:52:55.495Z,9.30
2019-03-19T14:55:26.094Z,9.30
2019-03-19T14:57:56.511Z,9.30
2019-03-19T15:00:27.085Z,9.30
2019-03-19T15:02:57.608Z,9.30
2019-03-19T15:05:28.117Z,9.20
2019-03-19T15:07:58.703Z,9.20
2019-03-19T15:10:29.195Z,9.20
2019-03-19T15:12:59.847Z,9.30
2019-03-19T15:15:30.474Z,9.20
2019-03-19T15:18:01.093Z,9.20
2019-03-19T15:20:31.725Z,9.20
2019-03-19T15:23:02.333Z,9.10
2019-03-19T15:25:32.978Z,9.00
2019-03-19T15:28:03.551Z,9.00
2019-03-19T15:30:34.182Z,9.00
2019-03-19T15:33:04.724Z,9.00
2019-03-19T15:35:35.308Z,9.00
2019-03-19T15:38:05.889Z,8.90
2019-03-19T15:40:36.566Z,8.90
2019-03-19T15:43:07.478Z,8.90
2019-03-19T15:45:38.142Z,8.90
2019-03-19T15:48:08.624Z,8.80
2019-03-19T15:50:39.193Z,8.80
2019-03-19T15:53:09.766Z,8.70
2019-03-19T15:55:40.386Z,8.60
2019-03-19T15:58:10.788Z,8.50
2019-03-19T16:00:41.282Z,8.50
2019-03-19T16:03:11.899Z,8.50
2019-03-19T16:05:42.417Z,8.40
2019-03-19T16:08:12.979Z,8.30
2019-03-19T16:10:43.609Z,8.30
2019-03-19T16:13:14.245Z,8.30
2019-03-19T16:15:44.799Z,8.20
2019-03-19T16:18:15.237Z,8.20
2019-03-19T16:20:45.752Z,8.20
2019-03-19T16:23:16.237Z,8.20
2019-03-19T16:25:46.795Z,8.20
2019-03-19T16:28:17.290Z,8.20
2019-03-19T16:30:47.910Z,8.20
2019-03-19T16:33:18.405Z,8.10
2019-03-19T16:35:49.030Z,8.10
2019-03-19T16:38:20.459Z,8.10
2019-03-19T16:40:50.947Z,8.00
2019-03-19T16:43:21.397Z,7.90
2019-03-19T16:45:51.915Z,7.80
2019-03-19T16:48:22.378Z,7.70
2019-03-19T16:50:52.979Z,7.70
2019-03-19T16:53:23.437Z,7.60
2019-03-19T16:55:53.933Z,7.60
2019-03-19T16:58:24.431Z,7.50
2019-03-19T17:00:54.994Z,7.50
2019-03-19T17:03:25.489Z,7.40
2019-03-19T17:05:56.085Z,7.40
2019-03-19T17:08:26.638Z,7.30
2019-03-19T17:10:57.178Z,7.20
2019-03-19T17:13:27.701Z,7.10
2019-03-19T17:15:58.247Z,7.10
2019-03-19T17:18:28.833Z,7.00
2019-03-19T17:20:59.463Z,7.00
2019-03-19T17:23:29.942Z,7.00
2019-03-19T17:26:00.429Z,6.90
2019-03-19T17:28:31.118Z,6.90
2019-03-19T17:31:01.770Z,6.90
2019-03-19T17:33:33.389Z,6.90
2019-03-19T17:36:03.876Z,6.90
2019-03-19T17:38:35.479Z,6.90
2019-03-19T17:41:06.050Z,6.90
2019-03-19T17:43:36.565Z,6.90
2019-03-19T17:46:07.156Z,6.90
2019-03-19T17:48:37.683Z,6.80
2019-03-19T17:51:08.193Z,6.80
2019-03-19T17:53:38.801Z,6.80
2019-03-19T17:56:10.074Z,6.70
2019-03-19T17:58:41.106Z,6.70
2019-03-19T18:01:17.407Z,6.60
2019-03-19T18:03:44.290Z,6.60
2019-03-19T18:06:14.749Z,6.50
2019-03-19T18:08:45.372Z,6.50
2019-03-19T18:11:16.008Z,6.50
2019-03-19T18:13:46.609Z,6.50
2019-03-19T18:16:17.111Z,6.40
2019-03-19T18:18:47.630Z,6.40
2019-03-19T18:21:18.151Z,6.30
2019-03-19T18:23:48.678Z,6.30
2019-03-19T18:26:19.272Z,6.20
2019-03-19T18:28:49.869Z,6.10
2019-03-19T18:31:20.425Z,6.00
2019-03-19T18:33:51.005Z,6.00
2019-03-19T18:36:23.203Z,5.90
2019-03-19T18:38:53.634Z,5.80
2019-03-19T18:41:24.116Z,5.80
2019-03-19T18:43:54.670Z,5.80
2019-03-19T18:46:25.138Z,5.70
2019-03-19T18:48:55.572Z,5.70
2019-03-19T18:51:26.047Z,5.60
2019-03-19T18:53:56.588Z,5.50
2019-03-19T18:56:27.225Z,5.50
2019-03-19T18:58:57.811Z,5.50
2019-03-19T19:01:28.324Z,5.50
2019-03-19T19:03:59.739Z,5.40
2019-03-19T19:06:30.284Z,5.40
2019-03-19T19:09:00.724Z,5.40
2019-03-19T19:11:32.855Z,5.40
2019-03-19T19:14:03.574Z,5.40
2019-03-19T19:16:34.147Z,5.40
2019-03-19T19:19:04.689Z,5.40
2019-03-19T19:21:35.330Z,5.40
2019-03-19T19:24:05.940Z,5.40
2019-03-19T19:26:36.737Z,5.40
2019-03-19T19:29:07.216Z,5.40
2019-03-19T19:31:37.883Z,5.40
2019-03-19T19:34:08.337Z,5.30
2019-03-19T19:36:38.976Z,5.30
2019-03-19T19:39:09.574Z,5.30
2019-03-19T19:41:40.185Z,5.30
2019-03-19T19:44:10.693Z,5.20
2019-03-19T19:46:41.253Z,5.10
2019-03-19T19:49:11.699Z,5.10
2019-03-19T19:51:42.271Z,5.10
2019-03-19T19:54:12.730Z,5.00
2019-03-19T19:56:43.213Z,4.90
2019-03-19T19:59:13.679Z,4.80
2019-03-19T20:01:44.356Z,4.70
2019-03-19T20:04:14.810Z,4.60
2019-03-19T20:06:45.533Z,4.60
2019-03-19T20:09:16.214Z,4.50
2019-03-19T20:11:46.940Z,4.40
2019-03-19T20:14:17.842Z,4.40
2019-03-19T20:16:48.562Z,4.30
2019-03-19T20:19:19.319Z,4.20
2019-03-19T20:21:49.887Z,4.20
2019-03-19T20:24:20.521Z,4.20
2019-03-19T20:26:51.409Z,4.10
2019-03-19T20:29:22.279Z,4.10
2019-03-19T20:31:52.770Z,4.00
2019-03-19T20:34:23.267Z,4.00
2019-03-19T20:36:53.838Z,4.00
2019-03-19T20:39:26.410Z,3.90
2019-03-19T20:41:56.963Z,3.90
2019-03-19T20:44:27.608Z,3.90
2019-03-19T20:47:00.322Z,3.90
2019-03-19T20:49:30.837Z,3.90
2019-03-19T20:52:01.474Z,3.80
2019-03-19T20:54:32.076Z,3.80
2019-03-19T20:57:02.659Z,3.80
2019-03-19T20:59:34.243Z,3.70
2019-03-19T21:02:04.835Z,3.70
2019-03-19T21:04:35.374Z,3.60
2019-03-19T21:07:06.000Z,3.60
2019-03-19T21:09:36.566Z,3.50
2019-03-19T21:12:07.120Z,3.50
2019-03-19T21:14:37.776Z,3.40
2019-03-19T21:17:08.357Z,3.40
2019-03-19T21:19:38.902Z,3.40
2019-03-19T21:22:09.569Z,3.30
2019-03-19T21:24:40.130Z,3.30
2019-03-19T21:27:10.771Z,3.20
2019-03-19T21:29:41.464Z,3.20
2019-03-19T21:32:12.028Z,3.20
2019-03-19T21:34:42.616Z,3.10
2019-03-19T21:37:13.242Z,3.10
2019-03-19T21:39:43.756Z,3.10
2019-03-19T21:42:14.251Z,3.10
2019-03-19T21:44:44.836Z,3.00
2019-03-19T21:47:15.296Z,3.00
2019-03-19T21:49:46.112Z,3.00
2019-03-19T21:52:16.661Z,3.00
2019-03-19T21:54:47.165Z,3.00
2019-03-19T21:57:17.890Z,3.00
2019-03-19T21:59:48.431Z,3.00
2019-03-19T22:02:18.889Z,3.00
2019-03-19T22:04:49.533Z,2.90
2019-03-19T22:07:20.070Z,2.90
2019-03-19T22:09:50.669Z,2.80
2019-03-19T22:12:22.445Z,2.80
2019-03-19T22:14:53.029Z,2.80
2019-03-19T22:17:23.591Z,2.70
2019-03-19T22:19:54.281Z,2.70
2019-03-19T22:22:24.810Z,2.60
2019-03-19T22:24:55.303Z,2.60
2019-03-19T22:27:25.901Z,2.60
2019-03-19T22:29:56.578Z,2.60
2019-03-19T22:32:27.087Z,2.50
2019-03-19T22:34:57.573Z,2.50
2019-03-19T22:37:28.122Z,2.50
2019-03-19T22:39:58.670Z,2.40
2019-03-19T22:42:29.168Z,2.40
2019-03-19T22:44:59.708Z,2.40
2019-03-19T22:47:31.196Z,2.30
2019-03-19T22:50:01.819Z,2.30
2019-03-19T22:52:32.386Z,2.20
2019-03-19T22:55:02.887Z,2.10
2019-03-19T22:57:33.502Z,2.10
2019-03-19T23:00:05.786Z,2.00
2019-03-19T23:02:38.026Z,2.00
2019-03-19T23:05:08.866Z,2.00
2019-03-19T23:07:39.453Z,2.00
2019-03-19T23:10:10.094Z,2.00
2019-03-19T23:12:40.757Z,2.00
2019-03-19T23:15:11.828Z,2.00
2019-03-19T23:17:42.388Z,1.90
2019-03-19T23:20:14.076Z,2.00
2019-03-19T23:22:44.591Z,1.90
2019-03-19T23:25:15.267Z,1.90
2019-03-19T23:27:45.760Z,1.90
2019-03-19T23:30:16.406Z,1.90
2019-03-19T23:32:47.031Z,1.90
2019-03-19T23:35:17.561Z,1.90
2019-03-19T23:37:48.171Z,1.80
2019-03-19T23:40:18.732Z,1.80
2019-03-19T23:42:49.335Z,1.80
2019-03-19T23:45:19.883Z,1.80
2019-03-19T23:47:50.471Z,1.80
2019-03-19T23:50:21.041Z,1.70
2019-03-19T23:52:51.605Z,1.70
2019-03-19T23:55:22.125Z,1.70
2019-03-19T23:57:52.634Z,1.60
